sensor_id;sensor_type;location;lat;lon;timestamp;pressure;altitude;pressure_sealevel;temperature;humidity
73016;BME280;61893;50.074;14.440;2023-04-08T00:03:21;98571.56;;;4.25;87.76
73016;BME280;61893;50.074;14.440;2023-04-08T00:05:56;98574.50;;;4.20;88.15
73016;BME280;61893;50.074;14.440;2023-04-08T00:09:11;98563.19;;;4.31;88.86
73016;BME280;61893;50.074;14.440;2023-04-08T00:12:11;98572.16;;;4.28;88.57
73016;BME280;61893;50.074;14.440;2023-04-08T00:14:42;98568.69;;;4.28;88.79
73016;BME280;61893;50.074;14.440;2023-04-08T00:17:13;98571.38;;;4.39;88.31
73016;BME280;61893;50.074;14.440;2023-04-08T00:19:57;98568.97;;;4.36;88.32
73016;BME280;61893;50.074;14.440;2023-04-08T00:22:23;98564.78;;;4.34;88.65
73016;BME280;61893;50.074;14.440;2023-04-08T00:24:51;98568.25;;;4.34;88.71
73016;BME280;61893;50.074;14.440;2023-04-08T00:27:20;98566.19;;;4.26;89.42
73016;BME280;61893;50.074;14.440;2023-04-08T00:29:46;98563.09;;;4.33;88.76
73016;BME280;61893;50.074;14.440;2023-04-08T00:32:11;98561.34;;;4.20;88.70
73016;BME280;61893;50.074;14.440;2023-04-08T00:34:54;98571.03;;;4.20;89.42
73016;BME280;61893;50.074;14.440;2023-04-08T00:37:23;98570.25;;;4.31;89.40
73016;BME280;61893;50.074;14.440;2023-04-08T00:39:55;98566.91;;;4.28;89.26
73016;BME280;61893;50.074;14.440;2023-04-08T00:42:24;98576.97;;;4.35;88.94
73016;BME280;61893;50.074;14.440;2023-04-08T00:44:53;98574.50;;;4.20;89.36
73016;BME280;61893;50.074;14.440;2023-04-08T00:47:18;98576.16;;;4.34;89.80
73016;BME280;61893;50.074;14.440;2023-04-08T00:49:44;98570.44;;;4.16;89.89
73016;BME280;61893;50.074;14.440;2023-04-08T00:52:10;98571.50;;;4.14;90.10
73016;BME280;61893;50.074;14.440;2023-04-08T00:54:37;98568.13;;;4.12;89.47
73016;BME280;61893;50.074;14.440;2023-04-08T00:57:14;98572.78;;;4.08;89.69
73016;BME280;61893;50.074;14.440;2023-04-08T01:00:39;98563.06;;;4.09;89.84
73016;BME280;61893;50.074;14.440;2023-04-08T01:04:20;98568.03;;;4.00;90.40
73016;BME280;61893;50.074;14.440;2023-04-08T01:07:02;98569.25;;;4.20;89.81
73016;BME280;61893;50.074;14.440;2023-04-08T01:09:34;98567.69;;;4.18;89.88
73016;BME280;61893;50.074;14.440;2023-04-08T01:12:20;98559.44;;;4.22;89.47
73016;BME280;61893;50.074;14.440;2023-04-08T01:14:47;98555.84;;;4.23;88.84
73016;BME280;61893;50.074;14.440;2023-04-08T01:17:19;98562.06;;;4.22;89.63
73016;BME280;61893;50.074;14.440;2023-04-08T01:20:14;98566.72;;;4.19;89.79
73016;BME280;61893;50.074;14.440;2023-04-08T01:25:48;98563.81;;;4.11;89.09
73016;BME280;61893;50.074;14.440;2023-04-08T01:28:27;98560.28;;;3.99;90.16
73016;BME280;61893;50.074;14.440;2023-04-08T01:30:56;98562.38;;;4.06;90.04
73016;BME280;61893;50.074;14.440;2023-04-08T01:33:23;98566.88;;;4.04;90.09
73016;BME280;61893;50.074;14.440;2023-04-08T01:35:52;98574.34;;;4.11;89.67
73016;BME280;61893;50.074;14.440;2023-04-08T01:38:22;98570.03;;;4.10;89.50
73016;BME280;61893;50.074;14.440;2023-04-08T01:40:54;98571.63;;;4.12;89.75
73016;BME280;61893;50.074;14.440;2023-04-08T01:43:20;98569.59;;;4.16;88.79
73016;BME280;61893;50.074;14.440;2023-04-08T01:45:47;98562.13;;;4.10;89.60
73016;BME280;61893;50.074;14.440;2023-04-08T01:48:17;98568.19;;;4.23;89.38
73016;BME280;61893;50.074;14.440;2023-04-08T01:50:44;98572.84;;;4.19;88.91
73016;BME280;61893;50.074;14.440;2023-04-08T01:53:11;98568.13;;;4.12;89.01
73016;BME280;61893;50.074;14.440;2023-04-08T01:55:41;98576.44;;;4.18;88.86
73016;BME280;61893;50.074;14.440;2023-04-08T01:58:32;98572.53;;;4.11;89.30
73016;BME280;61893;50.074;14.440;2023-04-08T02:01:00;98571.72;;;4.11;89.66
73016;BME280;61893;50.074;14.440;2023-04-08T02:03:43;98578.03;;;4.08;90.26
73016;BME280;61893;50.074;14.440;2023-04-08T02:06:29;98572.31;;;4.14;88.96
73016;BME280;61893;50.074;14.440;2023-04-08T02:09:14;98571.81;;;4.09;89.56
73016;BME280;61893;50.074;14.440;2023-04-08T02:11:42;98570.66;;;4.13;88.87
73016;BME280;61893;50.074;14.440;2023-04-08T02:14:08;98572.69;;;4.10;90.14
73016;BME280;61893;50.074;14.440;2023-04-08T02:22:47;98569.59;;;4.16;89.68
73016;BME280;61893;50.074;14.440;2023-04-08T02:25:23;98571.25;;;4.17;89.47
73016;BME280;61893;50.074;14.440;2023-04-08T02:27:58;98574.13;;;4.14;89.68
73016;BME280;61893;50.074;14.440;2023-04-08T02:30:26;98568.69;;;4.28;89.48
73016;BME280;61893;50.074;14.440;2023-04-08T02:32:55;98565.22;;;4.27;88.68
73016;BME280;61893;50.074;14.440;2023-04-08T02:35:25;98567.88;;;4.15;89.03
73016;BME280;61893;50.074;14.440;2023-04-08T02:37:52;98566.22;;;4.14;89.04
73016;BME280;61893;50.074;14.440;2023-04-08T02:40:41;98574.03;;;4.15;89.86
73016;BME280;61893;50.074;14.440;2023-04-08T02:43:49;98580.22;;;4.14;89.94
73016;BME280;61893;50.074;14.440;2023-04-08T02:46:34;98572.22;;;4.16;88.77
73016;BME280;61893;50.074;14.440;2023-04-08T02:49:34;98577.50;;;4.16;89.61
73016;BME280;61893;50.074;14.440;2023-04-08T02:52:00;98584.50;;;4.04;90.50
73016;BME280;61893;50.074;14.440;2023-04-08T02:54:26;98587.13;;;4.04;90.44
73016;BME280;61893;50.074;14.440;2023-04-08T02:56:51;98587.41;;;4.12;89.96
73016;BME280;61893;50.074;14.440;2023-04-08T02:59:20;98587.59;;;4.09;90.42
73016;BME280;61893;50.074;14.440;2023-04-08T03:01:46;98589.31;;;4.10;90.20
73016;BME280;61893;50.074;14.440;2023-04-08T03:04:15;98576.59;;;4.04;90.18
73016;BME280;61893;50.074;14.440;2023-04-08T03:07:01;98588.06;;;4.03;90.01
73016;BME280;61893;50.074;14.440;2023-04-08T03:09:30;98586.69;;;3.97;90.26
73016;BME280;61893;50.074;14.440;2023-04-08T03:12:09;98593.66;;;3.98;89.98
73016;BME280;61893;50.074;14.440;2023-04-08T03:14:54;98595.50;;;4.09;90.19
73016;BME280;61893;50.074;14.440;2023-04-08T03:17:21;98588.28;;;4.00;90.45
73016;BME280;61893;50.074;14.440;2023-04-08T03:19:47;98589.63;;;4.05;90.56
73016;BME280;61893;50.074;14.440;2023-04-08T03:22:13;98587.50;;;4.11;89.79
73016;BME280;61893;50.074;14.440;2023-04-08T03:24:39;98590.88;;;4.13;89.57
73016;BME280;61893;50.074;14.440;2023-04-08T03:27:27;98584.56;;;4.15;89.46
73016;BME280;61893;50.074;14.440;2023-04-08T03:30:06;98589.91;;;4.14;90.20
73016;BME280;61893;50.074;14.440;2023-04-08T03:32:49;98586.31;;;4.15;89.73
73016;BME280;61893;50.074;14.440;2023-04-08T03:35:15;98586.97;;;4.18;89.55
73016;BME280;61893;50.074;14.440;2023-04-08T03:37:41;98592.09;;;4.20;89.08
73016;BME280;61893;50.074;14.440;2023-04-08T03:40:59;98586.97;;;4.18;89.50
73016;BME280;61893;50.074;14.440;2023-04-08T03:43:25;98593.91;;;4.19;89.88
73016;BME280;61893;50.074;14.440;2023-04-08T03:46:51;98592.47;;;4.15;90.38
73016;BME280;61893;50.074;14.440;2023-04-08T03:49:38;98590.50;;;4.30;90.57
73016;BME280;61893;50.074;14.440;2023-04-08T03:52:08;98597.66;;;4.28;90.53
73016;BME280;61893;50.074;14.440;2023-04-08T03:55:04;98592.84;;;4.22;91.49
73016;BME280;61893;50.074;14.440;2023-04-08T03:57:33;98601.59;;;4.22;91.53
73016;BME280;61893;50.074;14.440;2023-04-08T04:00:15;98595.69;;;4.19;91.32
73016;BME280;61893;50.074;14.440;2023-04-08T04:02:58;98607.25;;;4.29;91.26
73016;BME280;61893;50.074;14.440;2023-04-08T04:05:44;98606.00;;;4.22;91.38
73016;BME280;61893;50.074;14.440;2023-04-08T04:08:45;98605.63;;;4.15;92.08
73016;BME280;61893;50.074;14.440;2023-04-08T04:12:27;98617.38;;;4.22;91.46
73016;BME280;61893;50.074;14.440;2023-04-08T04:15:18;98629.41;;;4.26;91.09
73016;BME280;61893;50.074;14.440;2023-04-08T04:18:19;98619.28;;;4.20;91.82
73016;BME280;61893;50.074;14.440;2023-04-08T04:21:51;98618.06;;;4.13;92.16
73016;BME280;61893;50.074;14.440;2023-04-08T04:25:27;98626.56;;;4.17;92.13
73016;BME280;61893;50.074;14.440;2023-04-08T04:27:57;98631.22;;;4.13;92.02
73016;BME280;61893;50.074;14.440;2023-04-08T04:31:30;98627.09;;;4.09;93.31
73016;BME280;61893;50.074;14.440;2023-04-08T04:34:56;98636.66;;;4.23;92.19
73016;BME280;61893;50.074;14.440;2023-04-08T04:38:17;98638.44;;;4.22;93.16
73016;BME280;61893;50.074;14.440;2023-04-08T04:41:34;98638.09;;;4.40;92.25
73016;BME280;61893;50.074;14.440;2023-04-08T04:44:42;98642.13;;;4.33;91.77
73016;BME280;61893;50.074;14.440;2023-04-08T04:48:18;98640.31;;;4.33;91.19
73016;BME280;61893;50.074;14.440;2023-04-08T04:51:04;98646.88;;;4.27;92.54
73016;BME280;61893;50.074;14.440;2023-04-08T04:53:33;98647.78;;;4.39;91.90
73016;BME280;61893;50.074;14.440;2023-04-08T04:56:01;98652.59;;;4.45;91.58
73016;BME280;61893;50.074;14.440;2023-04-08T04:58:38;98648.06;;;4.47;91.44
73016;BME280;61893;50.074;14.440;2023-04-08T05:01:06;98643.47;;;4.38;91.06
73016;BME280;61893;50.074;14.440;2023-04-08T05:04:27;98649.22;;;4.43;91.30
73016;BME280;61893;50.074;14.440;2023-04-08T05:07:44;98649.66;;;4.50;91.56
73016;BME280;61893;50.074;14.440;2023-04-08T05:10:27;98652.38;;;4.48;91.36
73016;BME280;61893;50.074;14.440;2023-04-08T05:13:37;98655.22;;;4.58;90.50
73016;BME280;61893;50.074;14.440;2023-04-08T05:17:15;98653.50;;;4.57;90.68
73016;BME280;61893;50.074;14.440;2023-04-08T05:20:09;98663.53;;;4.52;91.58
73016;BME280;61893;50.074;14.440;2023-04-08T05:22:35;98666.59;;;4.59;89.84
73016;BME280;61893;50.074;14.440;2023-04-08T05:25:15;98672.31;;;4.53;90.20
73016;BME280;61893;50.074;14.440;2023-04-08T05:27:41;98670.66;;;4.63;90.58
73016;BME280;61893;50.074;14.440;2023-04-08T05:30:10;98669.81;;;4.62;89.93
73016;BME280;61893;50.074;14.440;2023-04-08T05:33:02;98673.59;;;4.71;89.79
73016;BME280;61893;50.074;14.440;2023-04-08T05:35:34;98671.69;;;4.73;89.30
73016;BME280;61893;50.074;14.440;2023-04-08T05:38:00;98676.34;;;4.69;89.18
73016;BME280;61893;50.074;14.440;2023-04-08T05:40:33;98673.06;;;4.66;89.27
73016;BME280;61893;50.074;14.440;2023-04-08T05:43:25;98680.75;;;4.69;89.47
73016;BME280;61893;50.074;14.440;2023-04-08T05:45:51;98679.19;;;4.66;89.34
73016;BME280;61893;50.074;14.440;2023-04-08T05:48:34;98680.53;;;4.72;89.67
73016;BME280;61893;50.074;14.440;2023-04-08T05:51:15;98676.59;;;4.78;88.99
73016;BME280;61893;50.074;14.440;2023-04-08T05:53:43;98681.50;;;4.71;88.92
73016;BME280;61893;50.074;14.440;2023-04-08T05:56:47;98684.13;;;4.71;89.06
73016;BME280;61893;50.074;14.440;2023-04-08T05:59:57;98682.00;;;4.76;88.35
73016;BME280;61893;50.074;14.440;2023-04-08T06:02:26;98694.22;;;4.77;89.11
73016;BME280;61893;50.074;14.440;2023-04-08T06:06:32;98692.84;;;4.84;88.69
73016;BME280;61893;50.074;14.440;2023-04-08T06:10:23;98691.19;;;4.70;89.30
73016;BME280;61893;50.074;14.440;2023-04-08T06:13:39;98700.78;;;4.71;89.55
73016;BME280;61893;50.074;14.440;2023-04-08T06:16:17;98700.63;;;4.62;89.67
73016;BME280;61893;50.074;14.440;2023-04-08T06:19:01;98702.91;;;4.66;90.69
73016;BME280;61893;50.074;14.440;2023-04-08T06:21:41;98707.56;;;4.63;91.14
73016;BME280;61893;50.074;14.440;2023-04-08T06:24:26;98706.19;;;4.94;90.62
73016;BME280;61893;50.074;14.440;2023-04-08T06:26:58;98703.41;;;4.71;90.03
73016;BME280;61893;50.074;14.440;2023-04-08T06:29:42;98707.59;;;4.87;90.46
73016;BME280;61893;50.074;14.440;2023-04-08T06:32:10;98700.72;;;5.08;89.51
73016;BME280;61893;50.074;14.440;2023-04-08T06:34:49;98710.91;;;5.02;89.44
73016;BME280;61893;50.074;14.440;2023-04-08T06:37:22;98709.25;;;5.12;89.56
73016;BME280;61893;50.074;14.440;2023-04-08T06:39:51;98708.41;;;5.11;89.90
73016;BME280;61893;50.074;14.440;2023-04-08T06:43:19;98713.22;;;5.17;88.90
73016;BME280;61893;50.074;14.440;2023-04-08T06:45:52;98724.13;;;5.13;88.88
73016;BME280;61893;50.074;14.440;2023-04-08T06:48:20;98722.09;;;5.16;88.52
73016;BME280;61893;50.074;14.440;2023-04-08T06:51:03;98724.19;;;5.00;88.88
73016;BME280;61893;50.074;14.440;2023-04-08T06:53:41;98732.66;;;5.16;89.64
73016;BME280;61893;50.074;14.440;2023-04-08T06:56:12;98733.84;;;5.12;89.27
73016;BME280;61893;50.074;14.440;2023-04-08T06:59:15;98735.81;;;5.22;89.16
73016;BME280;61893;50.074;14.440;2023-04-08T07:02:13;98736.19;;;5.28;88.10
73016;BME280;61893;50.074;14.440;2023-04-08T07:04:57;98736.34;;;5.38;87.79
73016;BME280;61893;50.074;14.440;2023-04-08T07:07:58;98740.84;;;5.25;87.51
73016;BME280;61893;50.074;14.440;2023-04-08T07:10:38;98746.69;;;5.41;87.31
73016;BME280;61893;50.074;14.440;2023-04-08T07:13:53;98749.44;;;5.51;86.18
73016;BME280;61893;50.074;14.440;2023-04-08T07:16:25;98751.06;;;5.64;86.08
73016;BME280;61893;50.074;14.440;2023-04-08T07:18:54;98752.41;;;5.81;85.72
73016;BME280;61893;50.074;14.440;2023-04-08T07:21:31;98752.94;;;5.51;85.92
73016;BME280;61893;50.074;14.440;2023-04-08T07:23:57;98762.69;;;5.62;86.69
73016;BME280;61893;50.074;14.440;2023-04-08T07:27:04;98769.19;;;5.80;85.60
73016;BME280;61893;50.074;14.440;2023-04-08T07:29:34;98762.00;;;5.71;85.45
73016;BME280;61893;50.074;14.440;2023-04-08T07:32:01;98766.94;;;5.76;85.38
73016;BME280;61893;50.074;14.440;2023-04-08T07:34:43;98764.06;;;5.79;84.18
73016;BME280;61893;50.074;14.440;2023-04-08T07:37:22;98775.44;;;5.79;85.36
73016;BME280;61893;50.074;14.440;2023-04-08T07:39:49;98769.53;;;6.00;83.15
73016;BME280;61893;50.074;14.440;2023-04-08T07:42:19;98773.75;;;6.25;82.44
73016;BME280;61893;50.074;14.440;2023-04-08T07:44:45;98773.00;;;6.00;82.43
73016;BME280;61893;50.074;14.440;2023-04-08T07:47:14;98779.66;;;6.40;81.58
73016;BME280;61893;50.074;14.440;2023-04-08T07:50:43;98785.28;;;6.35;81.29
73016;BME280;61893;50.074;14.440;2023-04-08T07:53:50;98787.22;;;6.67;80.64
73016;BME280;61893;50.074;14.440;2023-04-08T07:57:31;98793.00;;;6.27;81.49
73016;BME280;61893;50.074;14.440;2023-04-08T08:00:54;98795.75;;;6.48;79.38
73016;BME280;61893;50.074;14.440;2023-04-08T08:04:21;98795.03;;;6.46;79.77
73016;BME280;61893;50.074;14.440;2023-04-08T08:07:57;98804.38;;;6.27;81.48
73016;BME280;61893;50.074;14.440;2023-04-08T08:11:34;98813.88;;;6.19;81.44
73016;BME280;61893;50.074;14.440;2023-04-08T08:15:40;98824.50;;;5.95;82.60
73016;BME280;61893;50.074;14.440;2023-04-08T08:18:48;98822.50;;;6.09;83.51
73016;BME280;61893;50.074;14.440;2023-04-08T08:21:54;98821.78;;;6.19;82.23
73016;BME280;61893;50.074;14.440;2023-04-08T08:25:34;98823.03;;;5.91;82.60
73016;BME280;61893;50.074;14.440;2023-04-08T08:28:36;98827.44;;;5.79;83.17
73016;BME280;61893;50.074;14.440;2023-04-08T08:31:28;98826.41;;;5.93;83.21
73016;BME280;61893;50.074;14.440;2023-04-08T08:34:09;98832.31;;;5.96;83.44
73016;BME280;61893;50.074;14.440;2023-04-08T08:36:57;98836.22;;;5.91;83.01
73016;BME280;61893;50.074;14.440;2023-04-08T08:39:33;98834.88;;;5.85;83.57
73016;BME280;61893;50.074;14.440;2023-04-08T08:42:26;98852.16;;;5.54;84.62
73016;BME280;61893;50.074;14.440;2023-04-08T08:46:22;98850.44;;;5.41;85.75
73016;BME280;61893;50.074;14.440;2023-04-08T08:49:33;98845.91;;;5.31;86.31
73016;BME280;61893;50.074;14.440;2023-04-08T08:52:50;98856.56;;;5.29;86.81
73016;BME280;61893;50.074;14.440;2023-04-08T08:56:07;98864.31;;;5.43;86.58
73016;BME280;61893;50.074;14.440;2023-04-08T08:59:10;98860.97;;;5.65;86.21
73016;BME280;61893;50.074;14.440;2023-04-08T09:02:01;98876.34;;;5.72;86.12
73016;BME280;61893;50.074;14.440;2023-04-08T09:04:27;98868.44;;;5.72;85.98
73016;BME280;61893;50.074;14.440;2023-04-08T09:07:09;98875.09;;;5.88;86.04
73016;BME280;61893;50.074;14.440;2023-04-08T09:12:10;98881.06;;;6.03;84.75
73016;BME280;61893;50.074;14.440;2023-04-08T09:14:44;98875.13;;;6.24;84.04
73016;BME280;61893;50.074;14.440;2023-04-08T09:20:07;98890.50;;;6.19;82.24
73016;BME280;61893;50.074;14.440;2023-04-08T09:25:36;98898.25;;;6.56;81.04
73016;BME280;61893;50.074;14.440;2023-04-08T09:28:18;98896.25;;;7.04;78.19
73016;BME280;61893;50.074;14.440;2023-04-08T09:31:30;98900.78;;;7.25;76.59
73016;BME280;61893;50.074;14.440;2023-04-08T09:34:16;98895.63;;;7.12;77.21
73016;BME280;61893;50.074;14.440;2023-04-08T09:37:02;98895.47;;;7.79;73.55
73016;BME280;61893;50.074;14.440;2023-04-08T09:39:49;98890.94;;;7.70;75.03
73016;BME280;61893;50.074;14.440;2023-04-08T09:42:22;98895.88;;;7.63;73.74
73016;BME280;61893;50.074;14.440;2023-04-08T09:45:07;98891.38;;;7.75;73.70
73016;BME280;61893;50.074;14.440;2023-04-08T09:51:00;98896.28;;;7.91;72.99
73016;BME280;61893;50.074;14.440;2023-04-08T09:53:34;98904.38;;;7.78;73.10
73016;BME280;61893;50.074;14.440;2023-04-08T09:56:09;98893.09;;;7.76;72.63
73016;BME280;61893;50.074;14.440;2023-04-08T09:59:02;98890.06;;;8.13;72.24
73016;BME280;61893;50.074;14.440;2023-04-08T10:02:00;98901.63;;;7.80;72.38
73016;BME280;61893;50.074;14.440;2023-04-08T10:05:57;98894.94;;;8.50;69.38
73016;BME280;61893;50.074;14.440;2023-04-08T10:09:14;98893.34;;;8.68;68.73
73016;BME280;61893;50.074;14.440;2023-04-08T10:18:32;98903.00;;;8.48;68.00
73016;BME280;61893;50.074;14.440;2023-04-08T10:22:00;98904.47;;;8.20;67.39
73016;BME280;61893;50.074;14.440;2023-04-08T10:25:47;98907.88;;;8.64;67.54
73016;BME280;61893;50.074;14.440;2023-04-08T10:28:51;98898.53;;;8.49;69.25
73016;BME280;61893;50.074;14.440;2023-04-08T10:32:28;98905.25;;;8.74;67.09
73016;BME280;61893;50.074;14.440;2023-04-08T10:35:49;98908.81;;;8.63;67.47
73016;BME280;61893;50.074;14.440;2023-04-08T10:38:40;98916.25;;;8.27;69.22
73016;BME280;61893;50.074;14.440;2023-04-08T10:41:52;98916.41;;;8.15;70.29
73016;BME280;61893;50.074;14.440;2023-04-08T10:44:58;98913.97;;;8.23;68.60
73016;BME280;61893;50.074;14.440;2023-04-08T10:47:50;98914.63;;;8.04;69.17
73016;BME280;61893;50.074;14.440;2023-04-08T10:50:30;98920.88;;;7.82;70.22
73016;BME280;61893;50.074;14.440;2023-04-08T10:53:11;98915.84;;;7.79;69.20
73016;BME280;61893;50.074;14.440;2023-04-08T10:58:25;98916.38;;;7.61;71.84
73016;BME280;61893;50.074;14.440;2023-04-08T11:00:54;98922.38;;;7.63;72.10
73016;BME280;61893;50.074;14.440;2023-04-08T11:03:54;98920.50;;;7.86;71.87
73016;BME280;61893;50.074;14.440;2023-04-08T11:06:35;98932.31;;;7.82;70.51
73016;BME280;61893;50.074;14.440;2023-04-08T11:10:07;98932.69;;;7.78;70.85
73016;BME280;61893;50.074;14.440;2023-04-08T11:13:00;98923.56;;;8.03;69.57
73016;BME280;61893;50.074;14.440;2023-04-08T11:16:15;98926.22;;;7.71;69.43
73016;BME280;61893;50.074;14.440;2023-04-08T11:19:02;98926.72;;;7.97;69.08
73016;BME280;61893;50.074;14.440;2023-04-08T11:21:46;98932.91;;;7.86;67.52
73016;BME280;61893;50.074;14.440;2023-04-08T11:24:45;98924.41;;;8.35;66.25
73016;BME280;61893;50.074;14.440;2023-04-08T11:28:23;98937.03;;;8.43;66.55
73016;BME280;61893;50.074;14.440;2023-04-08T11:34:38;98940.13;;;8.69;64.49
73016;BME280;61893;50.074;14.440;2023-04-08T11:37:35;98934.97;;;8.68;63.37
73016;BME280;61893;50.074;14.440;2023-04-08T11:40:38;98941.50;;;8.31;65.29
73016;BME280;61893;50.074;14.440;2023-04-08T11:43:38;98942.31;;;8.43;65.54
73016;BME280;61893;50.074;14.440;2023-04-08T11:51:55;98938.00;;;8.10;66.93
73016;BME280;61893;50.074;14.440;2023-04-08T11:54:43;98944.28;;;8.62;64.30
73016;BME280;61893;50.074;14.440;2023-04-08T11:57:28;98945.00;;;8.64;63.84
73016;BME280;61893;50.074;14.440;2023-04-08T11:59:56;98941.38;;;8.44;64.42
73016;BME280;61893;50.074;14.440;2023-04-08T12:02:23;98946.81;;;8.10;65.28
73016;BME280;61893;50.074;14.440;2023-04-08T12:04:51;98941.06;;;7.94;66.63
73016;BME280;61893;50.074;14.440;2023-04-08T12:09:57;98943.09;;;8.02;66.62
73016;BME280;61893;50.074;14.440;2023-04-08T12:12:40;98936.72;;;8.04;65.76
73016;BME280;61893;50.074;14.440;2023-04-08T12:15:10;98945.19;;;7.87;66.43
73016;BME280;61893;50.074;14.440;2023-04-08T12:17:57;98943.50;;;7.86;66.26
73016;BME280;61893;50.074;14.440;2023-04-08T12:20:28;98949.81;;;7.62;67.62
73016;BME280;61893;50.074;14.440;2023-04-08T12:22:56;98952.84;;;7.47;69.47
73016;BME280;61893;50.074;14.440;2023-04-08T12:25:24;98955.41;;;7.26;70.06
73016;BME280;61893;50.074;14.440;2023-04-08T12:27:53;98961.06;;;7.10;70.24
73016;BME280;61893;50.074;14.440;2023-04-08T12:30:36;98964.66;;;7.09;70.35
73016;BME280;61893;50.074;14.440;2023-04-08T12:33:24;98961.66;;;7.02;70.77
73016;BME280;61893;50.074;14.440;2023-04-08T12:35:56;98961.03;;;6.87;71.71
73016;BME280;61893;50.074;14.440;2023-04-08T12:38:25;98971.22;;;6.81;72.63
73016;BME280;61893;50.074;14.440;2023-04-08T12:41:02;98963.47;;;7.02;72.34
73016;BME280;61893;50.074;14.440;2023-04-08T12:43:32;98976.72;;;7.24;71.72
73016;BME280;61893;50.074;14.440;2023-04-08T12:46:12;98963.81;;;7.19;72.17
73016;BME280;61893;50.074;14.440;2023-04-08T12:48:44;98972.00;;;7.28;69.82
73016;BME280;61893;50.074;14.440;2023-04-08T12:51:34;98983.19;;;7.20;71.17
73016;BME280;61893;50.074;14.440;2023-04-08T12:54:17;98977.16;;;7.29;71.27
73016;BME280;61893;50.074;14.440;2023-04-08T12:57:11;98973.66;;;7.51;70.73
73016;BME280;61893;50.074;14.440;2023-04-08T12:59:57;98971.59;;;7.66;70.26
73016;BME280;61893;50.074;14.440;2023-04-08T13:02:38;98970.00;;;7.86;70.02
73016;BME280;61893;50.074;14.440;2023-04-08T13:05:36;98970.22;;;7.94;69.79
73016;BME280;61893;50.074;14.440;2023-04-08T13:08:18;98974.69;;;7.94;69.27
73016;BME280;61893;50.074;14.440;2023-04-08T13:10:49;98963.47;;;8.01;68.67
73016;BME280;61893;50.074;14.440;2023-04-08T13:14:02;98965.06;;;8.25;67.28
73016;BME280;61893;50.074;14.440;2023-04-08T13:17:38;98975.72;;;8.02;67.98
73016;BME280;61893;50.074;14.440;2023-04-08T13:20:50;98972.94;;;8.04;68.85
73016;BME280;61893;50.074;14.440;2023-04-08T13:24:28;98973.56;;;8.07;67.93
73016;BME280;61893;50.074;14.440;2023-04-08T13:27:21;98975.97;;;7.56;69.48
73016;BME280;61893;50.074;14.440;2023-04-08T13:30:23;98978.03;;;8.07;67.64
73016;BME280;61893;50.074;14.440;2023-04-08T13:33:17;98974.63;;;8.48;66.03
73016;BME280;61893;50.074;14.440;2023-04-08T13:36:22;98973.78;;;8.16;66.71
73016;BME280;61893;50.074;14.440;2023-04-08T13:39:34;98976.84;;;7.88;68.08
73016;BME280;61893;50.074;14.440;2023-04-08T13:42:37;98973.44;;;8.41;66.03
73016;BME280;61893;50.074;14.440;2023-04-08T13:46:28;98974.88;;;8.45;64.97
73016;BME280;61893;50.074;14.440;2023-04-08T13:50:01;98965.69;;;8.49;65.47
73016;BME280;61893;50.074;14.440;2023-04-08T13:53:14;98966.25;;;8.95;62.68
73016;BME280;61893;50.074;14.440;2023-04-08T13:56:05;98967.00;;;8.76;63.49
73016;BME280;61893;50.074;14.440;2023-04-08T13:58:46;98972.09;;;9.19;62.81
73016;BME280;61893;50.074;14.440;2023-04-08T14:01:13;98970.28;;;9.20;61.47
73016;BME280;61893;50.074;14.440;2023-04-08T14:04:17;98973.81;;;8.99;60.71
73016;BME280;61893;50.074;14.440;2023-04-08T14:06:47;98974.28;;;8.84;61.68
73016;BME280;61893;50.074;14.440;2023-04-08T14:09:19;98970.38;;;9.09;61.22
73016;BME280;61893;50.074;14.440;2023-04-08T14:11:58;98973.09;;;8.97;61.43
73016;BME280;61893;50.074;14.440;2023-04-08T14:14:26;98972.59;;;8.83;61.43
73016;BME280;61893;50.074;14.440;2023-04-08T14:17:08;98974.19;;;9.16;61.71
73016;BME280;61893;50.074;14.440;2023-04-08T14:19:35;98968.44;;;9.11;61.02
73016;BME280;61893;50.074;14.440;2023-04-08T14:22:03;98967.06;;;9.16;60.60
73016;BME280;61893;50.074;14.440;2023-04-08T14:24:30;98964.34;;;9.37;60.73
73016;BME280;61893;50.074;14.440;2023-04-08T14:27:05;98973.56;;;9.02;61.99
73016;BME280;61893;50.074;14.440;2023-04-08T14:29:32;98977.16;;;9.22;61.51
73016;BME280;61893;50.074;14.440;2023-04-08T14:32:03;98971.13;;;9.61;57.56
73016;BME280;61893;50.074;14.440;2023-04-08T14:34:30;98979.91;;;9.52;57.06
73016;BME280;61893;50.074;14.440;2023-04-08T14:36:59;98978.44;;;9.68;56.02
73016;BME280;61893;50.074;14.440;2023-04-08T14:39:27;98969.06;;;9.74;55.67
73016;BME280;61893;50.074;14.440;2023-04-08T14:41:54;98979.44;;;9.37;56.26
73016;BME280;61893;50.074;14.440;2023-04-08T14:44:22;98978.63;;;9.36;55.44
73016;BME280;61893;50.074;14.440;2023-04-08T14:47:10;98974.78;;;9.60;55.95
73016;BME280;61893;50.074;14.440;2023-04-08T14:49:55;98973.66;;;9.62;57.54
73016;BME280;61893;50.074;14.440;2023-04-08T14:52:36;98982.31;;;9.55;57.98
73016;BME280;61893;50.074;14.440;2023-04-08T14:55:04;98986.03;;;9.12;59.72
73016;BME280;61893;50.074;14.440;2023-04-08T14:57:54;98980.31;;;8.86;60.73
73016;BME280;61893;50.074;14.440;2023-04-08T15:00:42;98983.38;;;9.12;60.45
73016;BME280;61893;50.074;14.440;2023-04-08T15:03:16;98989.81;;;8.88;60.73
73016;BME280;61893;50.074;14.440;2023-04-08T15:05:49;98996.34;;;8.31;62.96
73016;BME280;61893;50.074;14.440;2023-04-08T15:08:30;98995.78;;;8.27;63.31
73016;BME280;61893;50.074;14.440;2023-04-08T15:11:36;98997.78;;;8.35;62.98
73016;BME280;61893;50.074;14.440;2023-04-08T15:15:25;98998.19;;;7.87;64.08
73016;BME280;61893;50.074;14.440;2023-04-08T15:24:15;99000.81;;;8.30;62.97
73016;BME280;61893;50.074;14.440;2023-04-08T15:26:45;99009.34;;;8.45;62.36
73016;BME280;61893;50.074;14.440;2023-04-08T15:29:14;99010.06;;;8.47;61.96
73016;BME280;61893;50.074;14.440;2023-04-08T15:31:44;99009.28;;;8.77;61.73
73016;BME280;61893;50.074;14.440;2023-04-08T15:34:28;99006.91;;;8.74;61.49
73016;BME280;61893;50.074;14.440;2023-04-08T15:36:54;99016.53;;;8.75;61.62